Time;durP1;ratioP1;P1;durP2;ratioP2;P2;SDS_P1;SDS_P2;PMS_P1;PMS_P2;Temp;Humidity;BMP_temperature;BMP_pressure;BME280_temperature;BME280_humidity;BME280_pressure;Samples;Min_cycle;Max_cycle;Signal;HPM_P1;HPM_P2
2022/11/30 00:00:24;;;;;;;18.62;14.05;;;8.10;82.30;;;;;;10862134;32;20024;-75
2022/11/30 00:06:27;;;;;;;25.67;17.15;;;8.10;82.10;;;;;;10848727;32;20019;-75
2022/11/30 00:12:29;;;;;;;20.27;14.57;;;8.00;81.90;;;;;;10861598;32;20093;-75
2022/11/30 00:18:31;;;;;;;28.77;20.02;;;8.10;81.90;;;;;;10861674;32;20024;-75
2022/11/30 00:24:33;;;;;;;17.75;13.52;;;8.10;82.00;;;;;;10848210;32;20035;-75
2022/11/30 00:30:35;;;;;;;18.67;13.18;;;8.10;82.00;;;;;;10861498;32;20450;-75
2022/11/30 00:36:57;;;;;;;16.00;10.52;;;8.10;82.10;;;;;;10867098;32;20036;-75
2022/11/30 00:42:59;;;;;;;19.85;14.57;;;8.00;82.30;;;;;;10867600;32;20032;-75
2022/11/30 00:49:01;;;;;;;20.90;15.25;;;8.10;82.40;;;;;;10867441;32;20343;-75
2022/11/30 00:55:03;;;;;;;22.92;17.15;;;8.00;82.60;;;;;;10867322;32;20028;-75
2022/11/30 01:01:06;;;;;;;16.05;11.98;;;8.10;82.70;;;;;;10863001;32;20052;-75
2022/11/30 01:07:08;;;;;;;15.82;11.48;;;8.00;82.50;;;;;;10867089;32;20028;-75
2022/11/30 01:13:11;;;;;;;15.38;11.20;;;8.00;82.30;;;;;;10866781;32;20028;-75
2022/11/30 01:19:13;;;;;;;14.10;9.18;;;8.00;82.20;;;;;;10866823;32;20019;-73
2022/11/30 01:25:15;;;;;;;15.98;11.10;;;7.80;82.20;;;;;;10862906;32;20149;-73
2022/11/30 01:31:19;;;;;;;14.77;10.77;;;7.70;82.10;;;;;;10866381;32;20039;-73
2022/11/30 01:37:21;;;;;;;13.13;9.40;;;7.60;82.00;;;;;;10866236;32;20050;-73
2022/11/30 01:44:02;;;;;;;14.07;10.68;;;7.50;81.90;;;;;;10865984;32;20023;-73
2022/11/30 01:50:12;;;;;;;15.73;11.32;;;7.50;81.80;;;;;;10861491;32;20055;-73
2022/11/30 01:56:14;;;;;;;12.82;9.52;;;7.50;81.80;;;;;;10865623;32;20024;-73
2022/11/30 02:02:21;;;;;;;12.37;9.05;;;7.50;81.50;;;;;;10865593;32;20063;-73
2022/11/30 02:08:24;;;;;;;13.13;8.90;;;7.50;81.50;;;;;;10865242;32;20023;-73
2022/11/30 02:14:26;;;;;;;13.80;10.40;;;7.40;81.40;;;;;;10863676;32;20024;-73
2022/11/30 02:20:35;;;;;;;10.85;8.05;;;7.40;81.30;;;;;;10851876;32;20055;-73
2022/11/30 02:26:52;;;;;;;13.40;8.77;;;7.30;81.20;;;;;;10864798;32;20023;-72
2022/11/30 02:33:05;;;;;;;15.68;9.23;;;7.20;81.30;;;;;;10864591;32;20396;-73
2022/11/30 02:39:10;;;;;;;13.73;9.35;;;7.20;81.40;;;;;;10851319;32;20031;-73
2022/11/30 02:45:12;;;;;;;13.45;8.65;;;7.20;81.30;;;;;;10864270;32;20028;-73
2022/11/30 02:51:20;;;;;;;14.65;10.00;;;7.20;81.20;;;;;;10864156;32;20055;-73
2022/11/30 02:57:22;;;;;;;12.82;9.05;;;7.00;81.20;;;;;;10863267;32;20050;-73
2022/11/30 03:03:24;;;;;;;12.95;9.45;;;7.00;81.30;;;;;;10859649;32;20039;-73
2022/11/30 03:09:26;;;;;;;13.18;8.65;;;6.90;81.20;;;;;;10863497;32;20391;-73
2022/11/30 03:15:28;;;;;;;22.55;12.35;;;6.80;81.20;;;;;;10863452;32;20070;-73
2022/11/30 03:21:31;;;;;;;14.13;9.18;;;6.90;81.30;;;;;;10859155;32;20028;-73
2022/11/30 03:27:33;;;;;;;18.52;12.80;;;6.90;81.20;;;;;;10863118;32;20027;-73
2022/11/30 03:33:35;;;;;;;13.65;10.10;;;6.80;81.10;;;;;;10862888;32;20032;-73
2022/11/30 03:39:37;;;;;;;18.40;13.13;;;6.90;81.20;;;;;;10862074;32;20050;-73
2022/11/30 03:45:39;;;;;;;18.55;13.10;;;6.80;81.20;;;;;;10862822;32;20046;-73
2022/11/30 03:51:41;;;;;;;12.93;9.55;;;6.90;81.30;;;;;;10862281;32;20030;-73
2022/11/30 03:57:43;;;;;;;14.73;10.57;;;6.80;81.30;;;;;;10858473;32;20024;-73
2022/11/30 04:03:45;;;;;;;12.85;8.63;;;6.80;81.30;;;;;;10862288;32;20051;-73
2022/11/30 04:09:48;;;;;;;11.98;8.55;;;6.70;81.20;;;;;;10861755;32;20434;-73
2022/11/30 04:15:52;;;;;;;16.05;9.38;;;6.70;81.30;;;;;;10861902;32;20050;-73
2022/11/30 04:21:54;;;;;;;12.90;9.80;;;6.60;81.30;;;;;;10857650;32;20429;-73
2022/11/30 04:27:56;;;;;;;14.15;9.85;;;6.60;81.20;;;;;;10857325;32;20066;-73
2022/11/30 04:33:58;;;;;;;11.65;8.00;;;6.50;81.10;;;;;;10861524;32;20309;-73
2022/11/30 04:40:01;;;;;;;13.70;8.57;;;6.40;81.10;;;;;;10861326;32;20058;-73
2022/11/30 04:46:06;;;;;;;10.90;8.07;;;6.10;81.60;;;;;;10861042;32;20024;-74
2022/11/30 04:52:08;;;;;;;13.02;7.40;;;6.20;82.00;;;;;;10860945;32;20023;-73
2022/11/30 04:58:10;;;;;;;11.77;8.73;;;6.30;81.50;;;;;;10860895;32;20339;-73
2022/11/30 05:04:12;;;;;;;12.82;10.73;;;6.30;81.80;;;;;;10860892;32;20054;-73
2022/11/30 05:10:14;;;;;;;16.58;12.55;;;6.60;81.40;;;;;;10860539;32;20391;-73
2022/11/30 05:16:17;;;;;;;14.52;11.15;;;6.80;81.40;;;;;;10860525;32;20433;-72
2022/11/30 05:22:19;;;;;;;17.77;12.15;;;7.10;81.30;;;;;;10866502;32;20343;-73
2022/11/30 05:28:21;;;;;;;15.57;11.55;;;7.10;80.80;;;;;;10866480;32;20034;-73
2022/11/30 05:35:01;;;;;;;14.13;10.02;;;7.20;80.60;;;;;;10863067;32;20298;-73
2022/11/30 05:41:03;;;;;;;15.25;10.57;;;7.30;80.50;;;;;;10867322;32;20027;-73
2022/11/30 05:47:05;;;;;;;18.62;10.65;;;7.20;80.40;;;;;;10865982;32;20020;-73
2022/11/30 05:53:07;;;;;;;22.55;13.80;;;7.20;80.30;;;;;;10865812;32;20059;-73
2022/11/30 05:59:10;;;;;;;13.68;8.43;;;7.20;80.00;;;;;;10865301;32;20421;-73
2022/11/30 06:05:12;;;;;;;20.45;12.55;;;7.40;80.00;;;;;;10865488;32;20031;-73
2022/11/30 06:11:16;;;;;;;13.90;10.10;;;7.40;79.90;;;;;;10865306;32;20028;-73
2022/11/30 06:17:21;;;;;;;19.33;14.68;;;7.50;80.00;;;;;;10852385;32;20054;-73
2022/11/30 06:23:23;;;;;;;17.60;11.95;;;7.40;80.00;;;;;;10864117;32;20027;-73
2022/11/30 06:29:26;;;;;;;16.17;9.32;;;7.30;79.90;;;;;;10863384;32;20402;-75
2022/11/30 06:35:28;;;;;;;19.10;13.25;;;7.30;80.00;;;;;;10864479;32;20035;-75
2022/11/30 06:41:33;;;;;;;16.12;13.35;;;7.20;80.00;;;;;;10864297;32;20035;-75
2022/11/30 06:47:42;;;;;;;15.32;10.52;;;7.30;80.60;;;;;;10867789;27;20058;-75
2022/11/30 06:53:45;;;;;;;16.80;12.60;;;7.10;80.90;;;;;;10850665;32;20387;-75
2022/11/30 06:59:47;;;;;;;15.85;12.55;;;7.20;81.10;;;;;;10843274;32;20071;-75
2022/11/30 07:05:49;;;;;;;16.00;11.52;;;7.30;80.80;;;;;;10837558;32;20400;-75
2022/11/30 07:11:51;;;;;;;27.62;17.58;;;7.20;80.80;;;;;;10849542;32;20039;-74
2022/11/30 07:17:53;;;;;;;17.40;13.02;;;7.30;80.70;;;;;;10841703;32;20032;-74
2022/11/30 07:30:16;;;;;;;30.02;20.55;;;7.60;80.30;;;;;;10895751;32;20050;-74
2022/11/30 07:36:20;;;;;;;21.58;14.40;;;7.50;80.30;;;;;;10896434;32;20019;-74
2022/11/30 07:42:22;;;;;;;18.08;14.32;;;7.60;80.60;;;;;;10899486;32;20031;-76
2022/11/30 07:48:24;;;;;;;21.77;14.43;;;7.70;80.50;;;;;;10899513;32;20300;-73
2022/11/30 07:54:26;;;;;;;17.45;12.35;;;7.90;80.50;;;;;;10899324;32;20023;-74
2022/11/30 08:00:29;;;;;;;16.48;12.30;;;7.90;80.70;;;;;;10899422;32;20069;-73
2022/11/30 08:06:31;;;;;;;15.45;11.00;;;8.00;80.90;;;;;;10897822;32;20023;-72
2022/11/30 08:12:33;;;;;;;19.77;13.02;;;8.20;81.50;;;;;;10885790;32;20050;-73
2022/11/30 08:18:35;;;;;;;15.40;11.52;;;8.50;82.00;;;;;;10899156;32;20319;-73
2022/11/30 08:24:37;;;;;;;14.48;11.40;;;8.70;82.30;;;;;;10895483;32;20386;-73
2022/11/30 08:30:39;;;;;;;12.80;8.35;;;8.70;82.60;;;;;;10894531;32;20312;-73
2022/11/30 08:36:41;;;;;;;16.33;10.68;;;8.90;83.00;;;;;;10897776;32;20054;-73
2022/11/30 08:42:43;;;;;;;17.23;11.93;;;9.00;83.50;;;;;;10897428;32;20028;-73
2022/11/30 08:48:45;;;;;;;19.00;10.93;;;9.10;83.80;;;;;;10896527;32;20429;-74
2022/11/30 08:54:48;;;;;;;18.25;11.63;;;9.20;83.90;;;;;;10898476;32;20445;-74
2022/11/30 09:00:49;;;;;;;13.45;8.95;;;9.40;83.80;;;;;;10902932;32;20395;-75
2022/11/30 09:06:51;;;;;;;12.23;7.53;;;9.50;84.00;;;;;;10904757;32;20050;-74
2022/11/30 09:12:53;;;;;;;16.00;9.15;;;9.60;84.30;;;;;;10886890;32;20031;-74
2022/11/30 09:18:55;;;;;;;12.77;9.45;;;9.60;84.30;;;;;;10904231;32;20019;-74
2022/11/30 09:24:57;;;;;;;9.77;7.12;;;9.60;84.70;;;;;;10902713;32;20035;-74
2022/11/30 09:31:03;;;;;;;13.15;8.85;;;9.70;85.30;;;;;;10899714;32;20070;-74
2022/11/30 09:37:05;;;;;;;14.38;9.65;;;9.80;85.50;;;;;;11026169;32;20026;-74
2022/11/30 09:43:31;;;;;;;8.20;5.05;;;9.70;85.60;;;;;;11057250;32;20467;-74
2022/11/30 09:49:40;;;;;;;11.77;7.43;;;9.80;85.90;;;;;;11057719;32;20299;-74
2022/11/30 09:55:43;;;;;;;11.12;8.00;;;9.80;86.10;;;;;;11056789;32;20044;-74
2022/11/30 10:01:47;;;;;;;10.32;6.00;;;9.80;86.10;;;;;;11056553;32;20022;-74
2022/11/30 10:08:01;;;;;;;15.75;8.43;;;9.70;86.60;;;;;;11058801;32;20350;-74
2022/11/30 10:14:39;;;;;;;13.77;7.65;;;9.90;86.80;;;;;;11060256;32;20026;-74
2022/11/30 10:21:13;;;;;;;13.48;8.00;;;9.90;86.80;;;;;;11051320;32;20038;-74
2022/11/30 10:27:27;;;;;;;9.75;6.37;;;9.90;87.10;;;;;;11055898;32;20022;-73
2022/11/30 10:33:43;;;;;;;8.60;4.95;;;9.80;87.30;;;;;;11059449;32;20361;-74
2022/11/30 10:40:02;;;;;;;10.98;7.00;;;10.00;87.30;;;;;;11058126;32;20022;-74
2022/11/30 10:46:21;;;;;;;11.18;6.65;;;10.10;87.50;;;;;;11047127;32;20312;-73
2022/11/30 10:52:32;;;;;;;9.75;6.62;;;10.20;87.60;;;;;;11058925;32;20034;-72
2022/11/30 10:58:42;;;;;;;11.93;6.55;;;10.40;87.20;;;;;;11054767;32;20049;-74
2022/11/30 11:04:44;;;;;;;9.80;6.00;;;10.60;87.20;;;;;;11057824;32;20048;-72
2022/11/30 11:10:50;;;;;;;13.13;8.30;;;10.70;86.70;;;;;;11058383;32;20343;-74
2022/11/30 11:17:00;;;;;;;9.98;6.57;;;10.90;86.90;;;;;;11055829;32;20056;-73
2022/11/30 11:23:03;;;;;;;9.50;5.68;;;10.90;86.60;;;;;;11055371;32;20018;-74
2022/11/30 11:29:05;;;;;;;8.65;5.28;;;11.10;86.60;;;;;;11043880;32;20105;-74
2022/11/30 11:35:44;;;;;;;14.93;9.20;;;11.20;86.20;;;;;;11057299;32;20433;-73
2022/11/30 11:41:47;;;;;;;12.23;7.53;;;11.20;86.20;;;;;;10864152;32;20146;-74
2022/11/30 11:47:59;;;;;;;8.70;6.18;;;10.80;85.80;;;;;;10862310;32;20019;-74
2022/11/30 11:54:26;;;;;;;9.48;6.20;;;10.80;85.90;;;;;;10861660;32;20035;-74
2022/11/30 12:00:32;;;;;;;9.35;6.40;;;10.80;86.40;;;;;;10863676;32;20046;-74
2022/11/30 12:06:36;;;;;;;8.88;5.40;;;10.70;87.00;;;;;;10862240;32;20352;-75
2022/11/30 12:12:38;;;;;;;8.07;4.78;;;10.70;86.90;;;;;;10918381;32;20048;-73
2022/11/30 12:19:06;;;;;;;9.65;4.82;;;10.80;86.90;;;;;;11051525;32;20044;-74
2022/11/30 12:25:30;;;;;;;11.45;7.20;;;10.90;87.10;;;;;;11056034;32;20018;-74
2022/11/30 12:32:03;;;;;;;9.48;5.90;;;11.00;86.70;;;;;;11063955;32;20303;-74
2022/11/30 12:38:05;;;;;;;9.93;5.50;;;10.80;86.20;;;;;;11060782;32;20021;-74
2022/11/30 12:44:44;;;;;;;12.23;8.23;;;10.90;85.50;;;;;;11060679;32;20057;-74
2022/11/30 12:51:05;;;;;;;10.15;5.50;;;10.70;85.10;;;;;;10991274;32;20032;-74
2022/11/30 12:57:37;;;;;;;7.87;5.05;;;10.60;85.70;;;;;;10830351;33;20082;-74
2022/11/30 13:03:45;;;;;;;8.18;5.12;;;10.70;86.30;;;;;;10828516;32;20047;-74
2022/11/30 13:09:58;;;;;;;8.55;5.50;;;10.50;85.80;;;;;;10830245;32;20090;-74
2022/11/30 13:16:07;;;;;;;6.55;4.07;;;10.60;86.60;;;;;;10829761;33;20043;-74
2022/11/30 13:22:51;;;;;;;7.65;4.75;;;10.70;86.90;;;;;;10827655;33;20024;-74
2022/11/30 13:29:14;;;;;;;5.37;3.75;;;10.90;87.20;;;;;;10828238;33;20031;-74
2022/11/30 13:35:28;;;;;;;6.00;3.33;;;10.90;87.20;;;;;;10829207;33;20042;-74
2022/11/30 13:41:38;;;;;;;7.12;4.40;;;11.10;87.30;;;;;;10828806;32;20388;-74
2022/11/30 13:47:45;;;;;;;7.15;4.18;;;11.30;87.20;;;;;;10824759;33;20050;-74
2022/11/30 13:54:37;;;;;;;9.88;5.03;;;11.40;87.30;;;;;;10828536;33;20090;-75
2022/11/30 14:00:39;;;;;;;6.35;3.67;;;11.50;87.20;;;;;;10815124;32;20026;-74
2022/11/30 14:07:24;;;;;;;11.88;4.68;;;11.60;87.20;;;;;;10830218;32;20032;-73
2022/11/30 14:13:30;;;;;;;6.43;4.37;;;11.60;87.20;;;;;;10829793;32;20078;-74
2022/11/30 14:19:32;;;;;;;15.18;5.03;;;11.60;87.10;;;;;;10829672;32;20024;-74
2022/11/30 14:25:35;;;;;;;9.70;5.28;;;11.70;87.00;;;;;;10853510;32;20302;-74
2022/11/30 14:31:50;;;;;;;8.02;4.80;;;11.70;86.90;;;;;;10867680;32;20055;-74
2022/11/30 14:37:55;;;;;;;16.70;7.95;;;11.70;87.00;;;;;;10828062;32;20316;-74
2022/11/30 14:44:04;;;;;;;12.00;7.37;;;11.80;86.90;;;;;;10814163;33;20427;-74
2022/11/30 14:50:18;;;;;;;;;;;11.90;86.80;;;;;;10858199;27;20032;-74
2022/11/30 14:56:41;;;;;;;15.13;10.77;;;11.70;86.90;;;;;;10860676;32;19949;-74
2022/11/30 15:02:44;;;;;;;13.35;8.02;;;11.70;87.00;;;;;;10852229;32;20062;-74
2022/11/30 15:08:53;;;;;;;12.45;6.80;;;11.60;87.00;;;;;;10854292;32;20054;-75
2022/11/30 15:15:20;;;;;;;11.57;7.50;;;11.50;87.00;;;;;;10847382;32;20058;-74
2022/11/30 15:21:28;;;;;;;10.52;7.72;;;11.50;87.10;;;;;;10859454;32;20320;-75
2022/11/30 15:27:30;;;;;;;13.35;7.72;;;11.40;86.80;;;;;;10849677;32;20293;-74
2022/11/30 15:33:45;;;;;;;14.05;7.35;;;11.40;86.70;;;;;;10861112;32;20023;-74
2022/11/30 15:39:54;;;;;;;9.95;6.97;;;11.30;86.60;;;;;;10862599;32;20046;-75
2022/11/30 15:45:57;;;;;;;9.43;5.90;;;11.20;86.70;;;;;;10862539;32;20012;-74
2022/11/30 15:52:13;;;;;;;8.10;5.40;;;11.20;86.70;;;;;;10862354;32;20445;-74
2022/11/30 15:58:33;;;;;;;11.70;8.95;;;11.00;86.80;;;;;;10862426;32;20442;-74
2022/11/30 16:05:13;;;;;;;10.75;6.15;;;11.00;86.60;;;;;;10847266;32;20024;-74
2022/11/30 16:11:16;;;;;;;11.23;6.90;;;10.90;86.50;;;;;;10860473;32;20347;-74
2022/11/30 16:17:18;;;;;;;10.63;7.00;;;10.80;86.70;;;;;;10982129;32;20091;-74
2022/11/30 16:23:20;;;;;;;11.43;7.37;;;10.70;86.60;;;;;;10929500;32;20066;-74
2022/11/30 16:29:41;;;;;;;9.48;6.12;;;10.70;86.30;;;;;;10835749;32;20058;-74
2022/11/30 16:36:17;;;;;;;11.43;8.18;;;10.60;86.30;;;;;;10823564;33;20071;-74
2022/11/30 16:42:19;;;;;;;9.05;6.35;;;10.50;86.30;;;;;;10824340;33;20051;-74
2022/11/30 16:48:39;;;;;;;9.98;5.93;;;10.50;86.30;;;;;;10824498;33;20024;-74
2022/11/30 16:54:41;;;;;;;12.98;8.45;;;10.40;86.20;;;;;;10820183;32;20066;-73
2022/11/30 17:00:43;;;;;;;11.77;8.50;;;10.30;86.20;;;;;;10810270;32;20413;-74
2022/11/30 17:07:08;;;;;;;10.75;6.75;;;10.20;86.10;;;;;;10822760;33;20063;-74
2022/11/30 17:13:14;;;;;;;10.73;8.48;;;10.20;86.20;;;;;;10822900;32;20422;-73
2022/11/30 17:19:17;;;;;;;9.77;6.90;;;10.10;86.20;;;;;;10827994;33;20031;-73
2022/11/30 17:25:21;;;;;;;9.25;6.57;;;10.10;86.10;;;;;;10827197;33;20055;-74
2022/11/30 17:31:25;;;;;;;16.75;11.45;;;10.00;86.30;;;;;;10826567;33;20023;-74
2022/11/30 17:37:27;;;;;;;13.35;9.02;;;9.80;86.30;;;;;;10812567;33;20032;-74
2022/11/30 17:43:39;;;;;;;12.52;9.50;;;9.70;86.80;;;;;;10813956;33;20031;-74
2022/11/30 17:49:41;;;;;;;14.30;10.10;;;9.90;86.80;;;;;;10828894;33;20392;-74
2022/11/30 17:55:45;;;;;;;15.40;12.13;;;9.90;86.50;;;;;;10827723;33;20032;-76
2022/11/30 18:01:54;;;;;;;13.82;10.52;;;9.90;86.40;;;;;;10826901;33;20050;-76
2022/11/30 18:07:56;;;;;;;17.02;11.65;;;9.90;86.60;;;;;;10826232;33;20016;-76
2022/11/30 18:14:01;;;;;;;21.05;12.20;;;9.90;86.50;;;;;;10825384;33;20060;-76
2022/11/30 18:20:05;;;;;;;14.25;10.52;;;9.90;86.40;;;;;;10828125;33;20352;-76
2022/11/30 18:26:11;;;;;;;14.50;10.93;;;9.70;86.50;;;;;;10827677;32;20400;-76
2022/11/30 18:32:13;;;;;;;19.73;16.10;;;9.70;86.60;;;;;;10827735;32;20422;-76
2022/11/30 18:38:15;;;;;;;18.62;13.38;;;9.80;86.60;;;;;;10827532;33;20050;-76
2022/11/30 18:44:18;;;;;;;18.27;13.60;;;9.80;86.50;;;;;;10827346;33;20332;-76
2022/11/30 18:50:21;;;;;;;17.40;13.65;;;9.80;86.50;;;;;;10822615;33;20028;-77
2022/11/30 18:56:27;;;;;;;15.13;11.55;;;9.60;86.40;;;;;;10822894;33;20028;-74
2022/11/30 19:02:28;;;;;;;17.92;12.80;;;9.60;86.50;;;;;;10826715;33;20015;-73
2022/11/30 19:08:31;;;;;;;19.02;14.85;;;9.60;86.50;;;;;;10826271;33;20348;-73
2022/11/30 19:14:33;;;;;;;19.48;13.90;;;9.50;86.50;;;;;;10825736;33;20070;-74
2022/11/30 19:20:39;;;;;;;21.80;14.50;;;9.60;86.50;;;;;;10826021;33;20051;-73
2022/11/30 19:26:41;;;;;;;17.00;12.98;;;9.70;86.30;;;;;;10824630;32;20404;-74
2022/11/30 19:32:43;;;;;;;20.10;14.80;;;9.70;86.20;;;;;;10825269;32;20302;-74
2022/11/30 19:38:45;;;;;;;21.67;15.43;;;9.70;86.30;;;;;;10824806;32;20028;-74
2022/11/30 19:44:50;;;;;;;22.40;16.25;;;9.70;86.20;;;;;;10825515;32;20059;-73
2022/11/30 19:50:52;;;;;;;26.87;18.08;;;9.70;86.20;;;;;;10813180;32;20308;-74
2022/11/30 19:56:56;;;;;;;22.50;19.45;;;9.70;86.20;;;;;;10878979;32;20027;-73
2022/11/30 20:02:58;;;;;;;22.77;17.37;;;9.70;86.20;;;;;;10899005;32;20070;-73
2022/11/30 20:09:06;;;;;;;18.98;14.10;;;9.70;86.20;;;;;;10898763;32;20027;-73
2022/11/30 20:15:08;;;;;;;23.85;16.48;;;9.70;86.10;;;;;;10885552;32;20438;-73
2022/11/30 20:21:31;;;;;;;21.55;15.95;;;9.80;86.20;;;;;;10898245;32;20028;-73
2022/11/30 20:27:34;;;;;;;19.65;16.10;;;10.00;86.30;;;;;;10898618;32;20036;-73
2022/11/30 20:33:37;;;;;;;25.90;16.85;;;10.10;86.10;;;;;;10898431;32;20027;-73
2022/11/30 20:39:41;;;;;;;27.80;21.00;;;10.20;86.10;;;;;;10861050;32;20019;-73
2022/11/30 20:45:43;;;;;;;21.30;16.95;;;10.30;85.90;;;;;;10898265;32;20020;-73
2022/11/30 20:51:45;;;;;;;26.23;17.67;;;10.50;85.60;;;;;;10899080;32;20035;-73
2022/11/30 20:57:48;;;;;;;20.35;15.02;;;10.60;85.30;;;;;;10900832;32;20055;-73
2022/11/30 21:03:50;;;;;;;20.88;14.57;;;10.60;85.00;;;;;;10891177;32;20334;-73
2022/11/30 21:09:52;;;;;;;22.95;15.70;;;10.60;85.00;;;;;;10904265;32;20057;-73
2022/11/30 21:15:54;;;;;;;26.00;19.35;;;10.60;84.70;;;;;;10904171;32;20031;-73
2022/11/30 21:21:58;;;;;;;28.48;21.37;;;10.50;84.90;;;;;;10893034;32;20062;-73
2022/11/30 21:28:00;;;;;;;23.30;16.70;;;10.60;84.90;;;;;;10866731;32;20061;-73
2022/11/30 21:34:02;;;;;;;31.23;21.98;;;10.70;84.40;;;;;;10866576;32;20032;-73
2022/11/30 21:40:05;;;;;;;22.13;17.23;;;10.80;84.70;;;;;;10866512;32;20019;-73
2022/11/30 21:46:17;;;;;;;19.67;15.15;;;10.80;84.60;;;;;;10866270;32;20024;-73
2022/11/30 21:52:19;;;;;;;28.15;18.87;;;10.60;84.30;;;;;;10866069;32;20058;-73
2022/11/30 21:58:22;;;;;;;20.77;16.80;;;10.50;84.80;;;;;;10852371;32;20042;-73
2022/11/30 22:04:24;;;;;;;23.17;17.35;;;10.70;85.00;;;;;;10852433;32;20071;-73
2022/11/30 22:10:26;;;;;;;20.95;16.30;;;10.70;84.80;;;;;;10865380;32;20035;-73
2022/11/30 22:16:28;;;;;;;22.95;15.73;;;10.70;84.80;;;;;;10865236;32;20063;-73
2022/11/30 22:22:30;;;;;;;23.20;16.92;;;10.70;84.70;;;;;;10865222;32;20046;-73
2022/11/30 22:28:32;;;;;;;21.50;15.68;;;10.60;84.60;;;;;;10865053;32;20032;-73
2022/11/30 22:34:34;;;;;;;18.30;15.07;;;10.60;84.50;;;;;;10865476;32;20418;-73
2022/11/30 22:40:36;;;;;;;24.52;18.12;;;10.60;84.40;;;;;;10851614;32;20028;-73
2022/11/30 22:46:38;;;;;;;23.85;18.37;;;10.50;84.20;;;;;;10869116;27;20032;-72
2022/11/30 22:52:41;;;;;;;21.05;15.15;;;10.50;84.50;;;;;;10405044;33;12276741;-73
2022/11/30 22:58:45;;;;;;;20.60;15.48;;;10.40;84.40;;;;;;10786876;32;20024;-73
2022/11/30 23:04:47;;;;;;;18.92;14.45;;;10.40;84.40;;;;;;10786112;33;20040;-73
2022/11/30 23:10:56;;;;;;;22.08;16.73;;;10.30;84.20;;;;;;10785404;33;20060;-73
2022/11/30 23:17:00;;;;;;;24.50;15.93;;;10.20;84.10;;;;;;10842288;32;20308;-73
2022/11/30 23:23:02;;;;;;;17.08;12.48;;;10.10;84.30;;;;;;10863478;32;20028;-73
2022/11/30 23:29:08;;;;;;;14.73;12.02;;;10.10;84.10;;;;;;10863336;32;20395;-73
2022/11/30 23:35:10;;;;;;;18.52;12.07;;;10.00;84.10;;;;;;10863042;32;20035;-75
2022/11/30 23:41:15;;;;;;;18.08;13.95;;;9.80;84.20;;;;;;10863008;32;20054;-73
2022/11/30 23:47:17;;;;;;;16.98;12.70;;;9.80;84.40;;;;;;10862723;32;20050;-73
2022/11/30 23:53:20;;;;;;;21.25;13.50;;;10.00;84.50;;;;;;10849316;32;20063;-73
2022/11/30 23:59:22;;;;;;;15.75;10.77;;;10.00;84.40;;;;;;10862571;32;20016;-73
